Pearl Of Scandinavia — OWFU2 — position and weather

sailwx.info

Track history (hours):
 
Tides and Currents Weather Stations Pressure Air Temp Water Temp Dewpoint Dewpoint Depression Visibility Wind Speed Wind Dir Waves Ship Positions

Pearl Of Scandinavia

Last reported at 2017-Feb-22 10:33 UTC. Time now 2017-Feb-22 10:57 UTC.
Position N 55°42' E 012°36'.

Length 176.4 m; beam 34 m; draft 6.215 m.

Type: Ship. MMSI: 219945000.

Date/timePositionNaut miles runAvg speedWind from/ knotsBaromVisibWave heightAir tempDewpointWater temp
2017-Feb-22 10:33N 55°42' E 012°36'0 0.0
2017-Feb-22 09:33N 55°42' E 012°36'0 0.2
2017-Feb-22 08:33N 55°42' E 012°36'1110.9
2017-Feb-22 07:33N 55°53' E 012°40'1414.5
2017-Feb-22 06:33N 56°07' E 012°32'6915.8
2017-Feb-22 02:12N 57°12' E 011°53'1116.0
2017-Feb-22 01:32N 57°21' E 011°42'1616.8
2017-Feb-22 00:33N 57°35' E 011°26'1716.7
2017-Feb-21 23:33N 57°51' E 011°15'1716.6
2017-Feb-21 22:33N 58°07' E 011°07'1616.6
2017-Feb-21 21:33N 58°23' E 010°58'1717.0
2017-Feb-21 20:33N 58°39' E 010°50'1616.3
2017-Feb-21 19:33N 58°55' E 010°43'1716.9
2017-Feb-21 18:33N 59°12' E 010°38'1717.5
2017-Feb-21 17:33N 59°29' E 010°34'1414.0
2017-Feb-21 16:33N 59°43' E 010°34'1212.0
2017-Feb-21 15:32N 59°54' E 010°45'0 0.0
2017-Feb-21 14:32N 59°54' E 010°45'0 0.0
2017-Feb-21 13:32N 59°54' E 010°45'0 0.0
2017-Feb-21 12:32N 59°54' E 010°45'0 0.0
2017-Feb-21 11:32N 59°54' E 010°45'0 0.0
2017-Feb-21 10:32N 59°54' E 010°45'0 0.0
2017-Feb-21 09:32N 59°54' E 010°45'0 0.2
2017-Feb-21 08:33N 59°54' E 010°45'1212.6
2017-Feb-21 07:33N 59°42' E 010°36'1414.2
2017-Feb-21 06:33N 59°28' E 010°34'1716.8
2017-Feb-21 05:33N 59°12' E 010°39'1716.5
2017-Feb-21 04:33N 58°55' E 010°43'1716.8
2017-Feb-21 03:33N 58°39' E 010°47'1716.7
2017-Feb-21 02:33N 58°23' E 010°57'1916.8
2017-Feb-21 01:26N 58°05' E 011°08'1416.3
2017-Feb-21 00:33N 57°51' E 011°16'1514.8
2017-Feb-20 23:33N 57°37' E 011°24'1515.2
2017-Feb-20 22:33N 57°23' E 011°33'1615.9
2017-Feb-20 21:33N 57°07' E 011°41'5716.3
2017-Feb-20 18:03N 56°15' E 012°23'816.1
2017-Feb-20 17:33N 56°08' E 012°31'1414.3
2017-Feb-20 16:33N 55°56' E 012°44'1413.9
2017-Feb-20 15:33N 55°42' E 012°37'1 0.6
2017-Feb-20 14:33N 55°42' E 012°36'0 0.0
2017-Feb-20 13:33N 55°42' E 012°36'0 0.0
2017-Feb-20 12:33N 55°42' E 012°36'0 0.0
2017-Feb-20 11:34N 55°42' E 012°36'0 0.0
2017-Feb-20 10:33N 55°42' E 012°36'0 0.0
2017-Feb-20 09:33N 55°42' E 012°36'0 0.2
2017-Feb-20 08:33N 55°42' E 012°36'1111.1
2017-Feb-20 07:33N 55°53' E 012°40'1414.2
2017-Feb-20 06:33N 56°07' E 012°32'6815.9
2017-Feb-20 02:15N 57°11' E 011°52'1216.9
2017-Feb-20 01:33N 57°22' E 011°42'1717.3
2017-Feb-20 00:33N 57°37' E 011°27'1817.6
2017-Feb-19 23:33N 57°53' E 011°14'1716.7
2017-Feb-19 22:33N 58°09' E 011°05'1717.2
2017-Feb-19 21:33N 58°26' E 010°54'1615.6
2017-Feb-19 20:33N 58°41' E 010°47'1615.7
2017-Feb-19 19:33N 58°56' E 010°43'1616.1
2017-Feb-19 18:33N 59°12' E 010°38'1515.5
2017-Feb-19 17:33N 59°27' E 010°33'1413.7
2017-Feb-19 16:33N 59°41' E 010°36'1413.5
2017-Feb-19 15:33N 59°54' E 010°44'0 0.3
2017-Feb-19 14:30N 59°54' E 010°45'0 0.0
2017-Feb-19 13:33N 59°54' E 010°45'0 0.0
2017-Feb-19 12:33N 59°54' E 010°45'0 0.0
2017-Feb-19 11:33N 59°54' E 010°45'0 0.0
2017-Feb-19 10:33N 59°54' E 010°45'0 0.0
2017-Feb-19 09:33N 59°54' E 010°45'0 0.2
2017-Feb-19 08:33N 59°54' E 010°45'1212.3
2017-Feb-19 07:32N 59°43' E 010°36'1313.5
2017-Feb-19 06:33N 59°29' E 010°35'1616.5
2017-Feb-19 05:33N 59°13' E 010°38'1616.4
2017-Feb-19 04:34N 58°57' E 010°42'1616.2
2017-Feb-19 03:33N 58°41' E 010°46'1616.3
2017-Feb-19 02:33N 58°25' E 010°55'1816.4
2017-Feb-19 01:27N 58°08' E 011°06'1415.8
2017-Feb-19 00:33N 57°54' E 011°14'1616.0
2017-Feb-18 23:33N 57°39' E 011°22'1615.6
2017-Feb-18 22:33N 57°24' E 011°30'1616.3
2017-Feb-18 21:33N 57°08' E 011°39'1816.3
2017-Feb-18 20:28N 56°52' E 011°50'4816.5
2017-Feb-18 17:33N 56°09' E 012°31'1615.8
2017-Feb-18 16:33N 55°55' E 012°44'1413.6
2017-Feb-18 15:34N 55°42' E 012°36'0 0.3
2017-Feb-18 14:32N 55°42' E 012°36'0 0.0
2017-Feb-18 13:32N 55°42' E 012°36'0 0.0
2017-Feb-18 12:32N 55°42' E 012°36'0 0.0
2017-Feb-18 11:32N 55°42' E 012°36'0 0.0
2017-Feb-18 10:32N 55°42' E 012°36'0 0.0
2017-Feb-18 09:32N 55°42' E 012°36'0 0.2
2017-Feb-18 08:34N 55°42' E 012°36'1111.3
2017-Feb-18 07:34N 55°53' E 012°40'1514.7
2017-Feb-18 06:33N 56°07' E 012°31'6816.6
2017-Feb-18 02:28N 57°12' E 011°52'1617.3
2017-Feb-18 01:33N 57°25' E 011°37'1717.2
2017-Feb-18 00:33N 57°41' E 011°23'1716.8
2017-Feb-17 23:33N 57°57' E 011°13'1717.3
2017-Feb-17 22:33N 58°13' E 011°04'1817.4
2017-Feb-17 21:33N 58°30' E 010°54'1717.0
2017-Feb-17 20:33N 58°46' E 010°46'1717.3
2017-Feb-17 19:34N 59°03' E 010°40'1717.4
2017-Feb-17 18:34N 59°21' E 010°35'1615.7
2017-Feb-17 17:33N 59°36' E 010°38'1413.8
2017-Feb-17 16:33N 59°50' E 010°35'7 6.3
2017-Feb-17 15:31N 59°54' E 010°45'0 0.0
2017-Feb-17 14:31N 59°54' E 010°45'0 0.0
2017-Feb-17 13:31N 59°54' E 010°45'0 0.0
2017-Feb-17 12:31N 59°54' E 010°45'0 0.0
2017-Feb-17 11:31N 59°54' E 010°45'0 0.0
2017-Feb-17 10:31N 59°54' E 010°45'0 0.0
2017-Feb-17 09:31N 59°54' E 010°45'0 0.2
2017-Feb-17 08:33N 59°54' E 010°44'1312.6
2017-Feb-17 07:33N 59°42' E 010°36'1413.7
2017-Feb-17 06:34N 59°29' E 010°34'1616.1
2017-Feb-17 05:33N 59°13' E 010°38'1716.7
2017-Feb-17 04:33N 58°56' E 010°37'1616.3
2017-Feb-17 03:34N 58°40' E 010°33'3515.8
2017-Feb-17 01:21N 58°06' E 010°53'1316.1
2017-Feb-17 00:33N 57°54' E 011°00'1616.2
2017-Feb-16 23:34N 57°39' E 011°11'1615.8
2017-Feb-16 22:33N 57°27' E 011°29'1716.6
2017-Feb-16 21:34N 57°11' E 011°39'6616.6
2017-Feb-16 17:34N 56°11' E 012°30'1616.2
2017-Feb-16 16:33N 55°56' E 012°43'1414.0
2017-Feb-16 15:33N 55°43' E 012°37'1 1.1
2017-Feb-16 14:32N 55°42' E 012°36'0 0.0
2017-Feb-16 13:32N 55°42' E 012°36'0 0.0
2017-Feb-16 12:32N 55°42' E 012°36'0 0.0
2017-Feb-16 11:31N 55°42' E 012°36'0 0.0
2017-Feb-16 10:33N 55°42' E 012°36'0 0.0
2017-Feb-16 09:32N 55°42' E 012°36'0 0.2
2017-Feb-16 08:33N 55°42' E 012°36'1110.7
2017-Feb-16 07:33N 55°53' E 012°40'1414.1
2017-Feb-16 06:33N 56°06' E 012°33'4915.6
2017-Feb-16 03:27N 56°53' E 012°09'1616.1
2017-Feb-16 02:28N 57°07' E 011°57'1516.1
2017-Feb-16 01:33N 57°20' E 011°44'1616.2
2017-Feb-16 00:33N 57°34' E 011°28'1816.9
2017-Feb-15 23:28N 57°51' E 011°16'1617.1
2017-Feb-15 22:33N 58°06' E 011°07'1716.8
2017-Feb-15 21:33N 58°22' E 010°58'1616.4
2017-Feb-15 20:33N 58°38' E 010°49'1818.0
2017-Feb-15 19:33N 58°55' E 010°41'1716.7
2017-Feb-15 18:33N 59°12' E 010°38'1616.1
2017-Feb-15 17:33N 59°28' E 010°34'1414.3
2017-Feb-15 16:33N 59°42' E 010°35'1312.8
2017-Feb-15 15:33N 59°54' E 010°45'0 0.0
2017-Feb-15 14:31N 59°54' E 010°45'0 0.0
2017-Feb-15 13:31N 59°54' E 010°45'0 0.0
2017-Feb-15 12:31N 59°54' E 010°45'0 0.0
2017-Feb-15 11:31N 59°54' E 010°45'0 0.0
2017-Feb-15 10:31N 59°54' E 010°45'0 0.0
2017-Feb-15 09:31N 59°54' E 010°45'0 0.1
2017-Feb-15 08:33N 59°54' E 010°45'1212.5
2017-Feb-15 07:33N 59°43' E 010°36'1413.8
2017-Feb-15 06:33N 59°29' E 010°35'1616.2
2017-Feb-15 05:33N 59°13' E 010°38'1616.1
2017-Feb-15 04:33N 58°57' E 010°43'1615.9
2017-Feb-15 03:33N 58°41' E 010°46'1615.9
2017-Feb-15 02:33N 58°26' E 010°55'1616.0
2017-Feb-15 01:33N 58°10' E 011°04'1616.4
2017-Feb-15 00:33N 57°55' E 011°13'1616.3
2017-Feb-14 23:33N 57°39' E 011°22'1616.3
2017-Feb-14 22:33N 57°23' E 011°31'1716.5
2017-Feb-14 21:33N 57°08' E 011°40'1616.4
2017-Feb-14 20:33N 56°52' E 011°50'1616.5
2017-Feb-14 19:34N 56°36' E 011°58'1616.4
2017-Feb-14 18:33N 56°22' E 012°13'1716.6
2017-Feb-14 17:33N 56°09' E 012°31'1616.0
2017-Feb-14 16:33N 55°55' E 012°44'1313.3
2017-Feb-14 15:34N 55°42' E 012°36'0 0.1
2017-Feb-14 14:32N 55°42' E 012°36'0 0.0
2017-Feb-14 13:32N 55°42' E 012°36'0 0.0
2017-Feb-14 12:32N 55°42' E 012°36'0 0.0
2017-Feb-14 11:32N 55°42' E 012°36'0 0.0
2017-Feb-14 10:32N 55°42' E 012°36'0 0.0
2017-Feb-14 09:32N 55°42' E 012°36'0 0.2
2017-Feb-14 08:33N 55°42' E 012°36'1010.2
2017-Feb-14 07:34N 55°52' E 012°41'1414.0
2017-Feb-14 06:34N 56°06' E 012°34'1515.1
2017-Feb-14 05:34N 56°19' E 012°22'1615.9
2017-Feb-14 04:33N 56°35' E 012°16'1616.5
2017-Feb-14 03:34N 56°51' E 012°10'1616.1
2017-Feb-14 02:33N 57°06' E 011°59'1616.2
2017-Feb-14 01:33N 57°20' E 011°44'1616.2
2017-Feb-14 00:33N 57°34' E 011°29'1716.7
2017-Feb-13 23:33N 57°50' E 011°17'1716.7
2017-Feb-13 22:33N 58°06' E 011°08'1717.0
2017-Feb-13 21:33N 58°22' E 010°59'1716.9
2017-Feb-13 20:33N 58°38' E 010°50'1716.9
2017-Feb-13 19:34N 58°55' E 010°43'1716.9
2017-Feb-13 18:34N 59°11' E 010°38'1616.5
2017-Feb-13 17:34N 59°28' E 010°34'1413.9
2017-Feb-13 16:33N 59°42' E 010°36'1313.2
2017-Feb-13 15:33N 59°54' E 010°44'0 0.2
2017-Feb-13 14:31N 59°54' E 010°45'0 0.0
2017-Feb-13 13:31N 59°54' E 010°45'0 0.0
2017-Feb-13 12:31N 59°54' E 010°45'0 0.0
2017-Feb-13 11:31N 59°54' E 010°45'0 0.0
2017-Feb-13 10:31N 59°54' E 010°45'0 0.0
2017-Feb-13 09:31N 59°54' E 010°45'0 0.1
2017-Feb-13 08:33N 59°54' E 010°45'1212.2
2017-Feb-13 07:33N 59°43' E 010°35'1414.1
2017-Feb-13 06:34N 59°29' E 010°35'1716.9
2017-Feb-13 05:34N 59°12' E 010°39'1716.6
2017-Feb-13 04:34N 58°56' E 010°42'1616.2
2017-Feb-13 03:34N 58°40' E 010°47'1616.0
2017-Feb-13 02:34N 58°24' E 010°56'1716.5
2017-Feb-13 01:33N 58°08' E 011°05'1716.7
2017-Feb-13 00:33N 57°53' E 011°14'1616.5
2017-Feb-12 23:34N 57°37' E 011°23'1716.6
2017-Feb-12 22:33N 57°21' E 011°32'1716.8
2017-Feb-12 21:33N 57°05' E 011°42'4916.5
2017-Feb-12 18:33N 56°19' E 012°17'1717.5
2017-Feb-12 17:34N 56°06' E 012°36'1616.4
2017-Feb-12 16:34N 55°50' E 012°44'9 8.9
2017-Feb-12 15:33N 55°42' E 012°36'0 0.0
2017-Feb-12 14:32N 55°42' E 012°36'0 0.0
2017-Feb-12 13:32N 55°42' E 012°36'0 0.0
2017-Feb-12 12:32N 55°42' E 012°36'0 0.0
2017-Feb-12 11:32N 55°42' E 012°36'  
Track history (hours):
 
Tides and Currents Weather Stations Pressure Air Temp Water Temp Dewpoint Dewpoint Depression Visibility Wind Speed Wind Dir Waves Ship Positions

Pearl Of Scandinavia

Last reported at 2017-Feb-22 10:33 UTC. Time now 2017-Feb-22 10:57 UTC.
Position N 55°42' E 012°36'.

Length 176.4 m; beam 34 m; draft 6.215 m.

Type: Ship. MMSI: 219945000.

Date/timePositionNaut miles runAvg speedWind from/ knotsBaromVisibWave heightAir tempDewpointWater temp
2017-Feb-22 10:33N 55°42' E 012°36'0 0.0
2017-Feb-22 09:33N 55°42' E 012°36'0 0.2
2017-Feb-22 08:33N 55°42' E 012°36'1110.9
2017-Feb-22 07:33N 55°53' E 012°40'1414.5
2017-Feb-22 06:33N 56°07' E 012°32'6915.8
2017-Feb-22 02:12N 57°12' E 011°53'1116.0
2017-Feb-22 01:32N 57°21' E 011°42'1616.8
2017-Feb-22 00:33N 57°35' E 011°26'1716.7
2017-Feb-21 23:33N 57°51' E 011°15'1716.6
2017-Feb-21 22:33N 58°07' E 011°07'1616.6
2017-Feb-21 21:33N 58°23' E 010°58'1717.0
2017-Feb-21 20:33N 58°39' E 010°50'1616.3
2017-Feb-21 19:33N 58°55' E 010°43'1716.9
2017-Feb-21 18:33N 59°12' E 010°38'1717.5
2017-Feb-21 17:33N 59°29' E 010°34'1414.0
2017-Feb-21 16:33N 59°43' E 010°34'1212.0
2017-Feb-21 15:32N 59°54' E 010°45'0 0.0
2017-Feb-21 14:32N 59°54' E 010°45'0 0.0
2017-Feb-21 13:32N 59°54' E 010°45'0 0.0
2017-Feb-21 12:32N 59°54' E 010°45'0 0.0
2017-Feb-21 11:32N 59°54' E 010°45'0 0.0
2017-Feb-21 10:32N 59°54' E 010°45'0 0.0
2017-Feb-21 09:32N 59°54' E 010°45'0 0.2
2017-Feb-21 08:33N 59°54' E 010°45'1212.6
2017-Feb-21 07:33N 59°42' E 010°36'1414.2
2017-Feb-21 06:33N 59°28' E 010°34'1716.8
2017-Feb-21 05:33N 59°12' E 010°39'1716.5
2017-Feb-21 04:33N 58°55' E 010°43'1716.8
2017-Feb-21 03:33N 58°39' E 010°47'1716.7
2017-Feb-21 02:33N 58°23' E 010°57'1916.8
2017-Feb-21 01:26N 58°05' E 011°08'1416.3
2017-Feb-21 00:33N 57°51' E 011°16'1514.8
2017-Feb-20 23:33N 57°37' E 011°24'1515.2
2017-Feb-20 22:33N 57°23' E 011°33'1615.9
2017-Feb-20 21:33N 57°07' E 011°41'5716.3
2017-Feb-20 18:03N 56°15' E 012°23'816.1
2017-Feb-20 17:33N 56°08' E 012°31'1414.3
2017-Feb-20 16:33N 55°56' E 012°44'1413.9
2017-Feb-20 15:33N 55°42' E 012°37'1 0.6
2017-Feb-20 14:33N 55°42' E 012°36'0 0.0
2017-Feb-20 13:33N 55°42' E 012°36'0 0.0
2017-Feb-20 12:33N 55°42' E 012°36'0 0.0
2017-Feb-20 11:34N 55°42' E 012°36'0 0.0
2017-Feb-20 10:33N 55°42' E 012°36'0 0.0
2017-Feb-20 09:33N 55°42' E 012°36'0 0.2
2017-Feb-20 08:33N 55°42' E 012°36'1111.1
2017-Feb-20 07:33N 55°53' E 012°40'1414.2
2017-Feb-20 06:33N 56°07' E 012°32'6815.9
2017-Feb-20 02:15N 57°11' E 011°52'1216.9
2017-Feb-20 01:33N 57°22' E 011°42'1717.3
2017-Feb-20 00:33N 57°37' E 011°27'1817.6
2017-Feb-19 23:33N 57°53' E 011°14'1716.7
2017-Feb-19 22:33N 58°09' E 011°05'1717.2
2017-Feb-19 21:33N 58°26' E 010°54'1615.6
2017-Feb-19 20:33N 58°41' E 010°47'1615.7
2017-Feb-19 19:33N 58°56' E 010°43'1616.1
2017-Feb-19 18:33N 59°12' E 010°38'1515.5
2017-Feb-19 17:33N 59°27' E 010°33'1413.7
2017-Feb-19 16:33N 59°41' E 010°36'1413.5
2017-Feb-19 15:33N 59°54' E 010°44'0 0.3
2017-Feb-19 14:30N 59°54' E 010°45'0 0.0
2017-Feb-19 13:33N 59°54' E 010°45'0 0.0
2017-Feb-19 12:33N 59°54' E 010°45'0 0.0
2017-Feb-19 11:33N 59°54' E 010°45'0 0.0
2017-Feb-19 10:33N 59°54' E 010°45'0 0.0
2017-Feb-19 09:33N 59°54' E 010°45'0 0.2
2017-Feb-19 08:33N 59°54' E 010°45'1212.3
2017-Feb-19 07:32N 59°43' E 010°36'1313.5
2017-Feb-19 06:33N 59°29' E 010°35'1616.5
2017-Feb-19 05:33N 59°13' E 010°38'1616.4
2017-Feb-19 04:34N 58°57' E 010°42'1616.2
2017-Feb-19 03:33N 58°41' E 010°46'1616.3
2017-Feb-19 02:33N 58°25' E 010°55'1816.4
2017-Feb-19 01:27N 58°08' E 011°06'1415.8
2017-Feb-19 00:33N 57°54' E 011°14'1616.0
2017-Feb-18 23:33N 57°39' E 011°22'1615.6
2017-Feb-18 22:33N 57°24' E 011°30'1616.3
2017-Feb-18 21:33N 57°08' E 011°39'1816.3
2017-Feb-18 20:28N 56°52' E 011°50'4816.5
2017-Feb-18 17:33N 56°09' E 012°31'1615.8
2017-Feb-18 16:33N 55°55' E 012°44'1413.6
2017-Feb-18 15:34N 55°42' E 012°36'0 0.3
2017-Feb-18 14:32N 55°42' E 012°36'0 0.0
2017-Feb-18 13:32N 55°42' E 012°36'0 0.0
2017-Feb-18 12:32N 55°42' E 012°36'0 0.0
2017-Feb-18 11:32N 55°42' E 012°36'0 0.0
2017-Feb-18 10:32N 55°42' E 012°36'0 0.0
2017-Feb-18 09:32N 55°42' E 012°36'0 0.2
2017-Feb-18 08:34N 55°42' E 012°36'1111.3
2017-Feb-18 07:34N 55°53' E 012°40'1514.7
2017-Feb-18 06:33N 56°07' E 012°31'6816.6
2017-Feb-18 02:28N 57°12' E 011°52'1617.3
2017-Feb-18 01:33N 57°25' E 011°37'1717.2
2017-Feb-18 00:33N 57°41' E 011°23'1716.8
2017-Feb-17 23:33N 57°57' E 011°13'1717.3
2017-Feb-17 22:33N 58°13' E 011°04'1817.4
2017-Feb-17 21:33N 58°30' E 010°54'1717.0
2017-Feb-17 20:33N 58°46' E 010°46'1717.3
2017-Feb-17 19:34N 59°03' E 010°40'1717.4
2017-Feb-17 18:34N 59°21' E 010°35'1615.7
2017-Feb-17 17:33N 59°36' E 010°38'1413.8
2017-Feb-17 16:33N 59°50' E 010°35'7 6.3
2017-Feb-17 15:31N 59°54' E 010°45'0 0.0
2017-Feb-17 14:31N 59°54' E 010°45'0 0.0
2017-Feb-17 13:31N 59°54' E 010°45'0 0.0
2017-Feb-17 12:31N 59°54' E 010°45'0 0.0
2017-Feb-17 11:31N 59°54' E 010°45'0 0.0
2017-Feb-17 10:31N 59°54' E 010°45'0 0.0
2017-Feb-17 09:31N 59°54' E 010°45'0 0.2
2017-Feb-17 08:33N 59°54' E 010°44'1312.6
2017-Feb-17 07:33N 59°42' E 010°36'1413.7
2017-Feb-17 06:34N 59°29' E 010°34'1616.1
2017-Feb-17 05:33N 59°13' E 010°38'1716.7
2017-Feb-17 04:33N 58°56' E 010°37'1616.3
2017-Feb-17 03:34N 58°40' E 010°33'3515.8
2017-Feb-17 01:21N 58°06' E 010°53'1316.1
2017-Feb-17 00:33N 57°54' E 011°00'1616.2
2017-Feb-16 23:34N 57°39' E 011°11'1615.8
2017-Feb-16 22:33N 57°27' E 011°29'1716.6
2017-Feb-16 21:34N 57°11' E 011°39'6616.6
2017-Feb-16 17:34N 56°11' E 012°30'1616.2
2017-Feb-16 16:33N 55°56' E 012°43'1414.0
2017-Feb-16 15:33N 55°43' E 012°37'1 1.1
2017-Feb-16 14:32N 55°42' E 012°36'0 0.0
2017-Feb-16 13:32N 55°42' E 012°36'0 0.0
2017-Feb-16 12:32N 55°42' E 012°36'0 0.0
2017-Feb-16 11:31N 55°42' E 012°36'0 0.0
2017-Feb-16 10:33N 55°42' E 012°36'0 0.0
2017-Feb-16 09:32N 55°42' E 012°36'0 0.2
2017-Feb-16 08:33N 55°42' E 012°36'1110.7
2017-Feb-16 07:33N 55°53' E 012°40'1414.1
2017-Feb-16 06:33N 56°06' E 012°33'4915.6
2017-Feb-16 03:27N 56°53' E 012°09'1616.1
2017-Feb-16 02:28N 57°07' E 011°57'1516.1
2017-Feb-16 01:33N 57°20' E 011°44'1616.2
2017-Feb-16 00:33N 57°34' E 011°28'1816.9
2017-Feb-15 23:28N 57°51' E 011°16'1617.1
2017-Feb-15 22:33N 58°06' E 011°07'1716.8
2017-Feb-15 21:33N 58°22' E 010°58'1616.4
2017-Feb-15 20:33N 58°38' E 010°49'1818.0
2017-Feb-15 19:33N 58°55' E 010°41'1716.7
2017-Feb-15 18:33N 59°12' E 010°38'1616.1
2017-Feb-15 17:33N 59°28' E 010°34'1414.3
2017-Feb-15 16:33N 59°42' E 010°35'1312.8
2017-Feb-15 15:33N 59°54' E 010°45'0 0.0
2017-Feb-15 14:31N 59°54' E 010°45'0 0.0
2017-Feb-15 13:31N 59°54' E 010°45'0 0.0
2017-Feb-15 12:31N 59°54' E 010°45'0 0.0
2017-Feb-15 11:31N 59°54' E 010°45'0 0.0
2017-Feb-15 10:31N 59°54' E 010°45'0 0.0
2017-Feb-15 09:31N 59°54' E 010°45'0 0.1
2017-Feb-15 08:33N 59°54' E 010°45'1212.5
2017-Feb-15 07:33N 59°43' E 010°36'1413.8
2017-Feb-15 06:33N 59°29' E 010°35'1616.2
2017-Feb-15 05:33N 59°13' E 010°38'1616.1
2017-Feb-15 04:33N 58°57' E 010°43'1615.9
2017-Feb-15 03:33N 58°41' E 010°46'1615.9
2017-Feb-15 02:33N 58°26' E 010°55'1616.0
2017-Feb-15 01:33N 58°10' E 011°04'1616.4
2017-Feb-15 00:33N 57°55' E 011°13'1616.3
2017-Feb-14 23:33N 57°39' E 011°22'1616.3
2017-Feb-14 22:33N 57°23' E 011°31'1716.5
2017-Feb-14 21:33N 57°08' E 011°40'1616.4
2017-Feb-14 20:33N 56°52' E 011°50'1616.5
2017-Feb-14 19:34N 56°36' E 011°58'1616.4
2017-Feb-14 18:33N 56°22' E 012°13'1716.6
2017-Feb-14 17:33N 56°09' E 012°31'1616.0
2017-Feb-14 16:33N 55°55' E 012°44'1313.3
2017-Feb-14 15:34N 55°42' E 012°36'0 0.1
2017-Feb-14 14:32N 55°42' E 012°36'0 0.0
2017-Feb-14 13:32N 55°42' E 012°36'0 0.0
2017-Feb-14 12:32N 55°42' E 012°36'0 0.0
2017-Feb-14 11:32N 55°42' E 012°36'0 0.0
2017-Feb-14 10:32N 55°42' E 012°36'0 0.0
2017-Feb-14 09:32N 55°42' E 012°36'0 0.2
2017-Feb-14 08:33N 55°42' E 012°36'1010.2
2017-Feb-14 07:34N 55°52' E 012°41'1414.0
2017-Feb-14 06:34N 56°06' E 012°34'1515.1
2017-Feb-14 05:34N 56°19' E 012°22'1615.9
2017-Feb-14 04:33N 56°35' E 012°16'1616.5
2017-Feb-14 03:34N 56°51' E 012°10'1616.1
2017-Feb-14 02:33N 57°06' E 011°59'1616.2
2017-Feb-14 01:33N 57°20' E 011°44'1616.2
2017-Feb-14 00:33N 57°34' E 011°29'1716.7
2017-Feb-13 23:33N 57°50' E 011°17'1716.7
2017-Feb-13 22:33N 58°06' E 011°08'1717.0
2017-Feb-13 21:33N 58°22' E 010°59'1716.9
2017-Feb-13 20:33N 58°38' E 010°50'1716.9
2017-Feb-13 19:34N 58°55' E 010°43'1716.9
2017-Feb-13 18:34N 59°11' E 010°38'1616.5
2017-Feb-13 17:34N 59°28' E 010°34'1413.9
2017-Feb-13 16:33N 59°42' E 010°36'1313.2
2017-Feb-13 15:33N 59°54' E 010°44'0 0.2
2017-Feb-13 14:31N 59°54' E 010°45'0 0.0
2017-Feb-13 13:31N 59°54' E 010°45'0 0.0
2017-Feb-13 12:31N 59°54' E 010°45'0 0.0
2017-Feb-13 11:31N 59°54' E 010°45'0 0.0
2017-Feb-13 10:31N 59°54' E 010°45'0 0.0
2017-Feb-13 09:31N 59°54' E 010°45'0 0.1
2017-Feb-13 08:33N 59°54' E 010°45'1212.2
2017-Feb-13 07:33N 59°43' E 010°35'1414.1
2017-Feb-13 06:34N 59°29' E 010°35'1716.9
2017-Feb-13 05:34N 59°12' E 010°39'1716.6
2017-Feb-13 04:34N 58°56' E 010°42'1616.2
2017-Feb-13 03:34N 58°40' E 010°47'1616.0
2017-Feb-13 02:34N 58°24' E 010°56'1716.5
2017-Feb-13 01:33N 58°08' E 011°05'1716.7
2017-Feb-13 00:33N 57°53' E 011°14'1616.5
2017-Feb-12 23:34N 57°37' E 011°23'1716.6
2017-Feb-12 22:33N 57°21' E 011°32'1716.8
2017-Feb-12 21:33N 57°05' E 011°42'4916.5
2017-Feb-12 18:33N 56°19' E 012°17'1717.5
2017-Feb-12 17:34N 56°06' E 012°36'1616.4
2017-Feb-12 16:34N 55°50' E 012°44'9 8.9
2017-Feb-12 15:33N 55°42' E 012°36'0 0.0
2017-Feb-12 14:32N 55°42' E 012°36'0 0.0
2017-Feb-12 13:32N 55°42' E 012°36'0 0.0
2017-Feb-12 12:32N 55°42' E 012°36'0 0.0
2017-Feb-12 11:32N 55°42' E 012°36'  

Dump ship's entire track history